createdAt,value
2024-01-16T00:01:19.508Z,80.82
2024-01-16T00:03:52.079Z,80.64
2024-01-16T00:06:22.007Z,80.68
2024-01-16T00:08:51.859Z,80.21
2024-01-16T00:11:22.907Z,80.51
2024-01-16T00:13:53.917Z,80.45
2024-01-16T00:16:23.759Z,80.76
2024-01-16T00:18:56.430Z,80.18
2024-01-16T00:21:26.083Z,80.18
2024-01-16T00:23:56.089Z,80.19
2024-01-16T00:26:26.517Z,79.88
2024-01-16T00:28:56.706Z,80.08
2024-01-16T00:31:26.787Z,80.73
2024-01-16T00:33:59.393Z,81.06
2024-01-16T00:36:29.304Z,80.70
2024-01-16T00:38:59.250Z,80.49
2024-01-16T00:41:30.063Z,80.95
2024-01-16T00:44:00.009Z,81.43
2024-01-16T00:46:30.824Z,81.59
2024-01-16T00:49:03.338Z,81.24
2024-01-16T00:51:33.267Z,81.57
2024-01-16T00:54:03.079Z,81.84
2024-01-16T00:56:34.783Z,81.38
2024-01-16T00:59:04.711Z,81.51
2024-01-16T01:01:34.557Z,81.29
2024-01-16T01:04:07.133Z,81.11
2024-01-16T01:06:37.314Z,79.83
2024-01-16T01:09:08.040Z,80.04
2024-01-16T01:11:38.923Z,79.20
2024-01-16T01:14:10.187Z,79.16
2024-01-16T01:16:40.614Z,78.90
2024-01-16T01:19:14.188Z,78.91
2024-01-16T01:21:44.347Z,78.87
2024-01-16T01:24:14.189Z,78.89
2024-01-16T01:26:47.202Z,79.06
2024-01-16T01:29:19.044Z,78.99
2024-01-16T01:31:51.498Z,79.03
2024-01-16T01:34:24.243Z,79.92
2024-01-16T01:36:54.368Z,79.98
2024-01-16T01:39:24.542Z,80.36
2024-01-16T01:41:55.017Z,80.55
2024-01-16T01:44:26.373Z,80.47
2024-01-16T01:46:59.009Z,80.58
2024-01-16T01:49:32.168Z,80.49
2024-01-16T01:52:02.679Z,80.19
2024-01-16T01:54:35.674Z,80.03
2024-01-16T01:57:06.539Z,80.45
2024-01-16T01:59:37.082Z,80.37
2024-01-16T02:02:08.612Z,80.53
2024-01-16T02:04:42.514Z,80.34
2024-01-16T02:07:12.333Z,79.96
2024-01-16T02:09:42.725Z,78.75
2024-01-16T02:12:12.737Z,78.75
2024-01-16T02:14:43.459Z,78.46
2024-01-16T02:17:13.374Z,77.88
2024-01-16T02:19:46.484Z,78.42
2024-01-16T02:22:23.650Z,77.83
2024-01-16T02:24:57.981Z,78.55
2024-01-16T02:27:28.051Z,78.72
2024-01-16T02:29:57.915Z,79.29
2024-01-16T02:32:30.168Z,79.54
2024-01-16T02:35:00.321Z,79.55
2024-01-16T02:37:30.244Z,79.40
2024-01-16T02:40:07.533Z,78.92
2024-01-16T02:42:38.770Z,79.27
2024-01-16T02:45:09.977Z,79.59
2024-01-16T02:47:39.862Z,79.46
2024-01-16T02:50:11.944Z,79.40
2024-01-16T02:52:41.852Z,78.45
2024-01-16T02:55:15.860Z,79.00
2024-01-16T02:57:45.980Z,78.78
2024-01-16T03:00:16.894Z,79.02
2024-01-16T03:02:47.496Z,79.58
2024-01-16T03:05:17.855Z,79.63
2024-01-16T03:07:48.365Z,79.38
2024-01-16T03:10:21.074Z,79.70
2024-01-16T03:12:51.154Z,79.88
2024-01-16T03:15:21.497Z,80.10
2024-01-16T03:17:52.056Z,80.06
2024-01-16T03:20:24.727Z,80.06
2024-01-16T03:22:54.694Z,79.72
2024-01-16T03:25:28.388Z,79.51
2024-01-16T03:27:58.591Z,79.76
2024-01-16T03:30:29.145Z,79.62
2024-01-16T03:32:59.330Z,79.61
2024-01-16T03:35:29.438Z,79.84
2024-01-16T03:37:59.204Z,79.81
2024-01-16T03:40:35.693Z,80.17
2024-01-16T03:43:06.637Z,79.45
2024-01-16T03:45:37.013Z,79.66
2024-01-16T03:48:07.677Z,79.42
2024-01-16T03:50:38.119Z,79.71
2024-01-16T03:53:08.011Z,79.71
2024-01-16T03:55:40.714Z,80.11
2024-01-16T03:58:13.432Z,79.94
2024-01-16T04:00:43.565Z,80.38
2024-01-16T04:03:14.494Z,80.50
2024-01-16T04:05:44.696Z,80.59
2024-01-16T04:08:17.837Z,81.01
2024-01-16T04:10:50.984Z,81.40
2024-01-16T04:13:20.585Z,81.12
2024-01-16T04:15:50.450Z,81.58
2024-01-16T04:18:20.729Z,81.84
2024-01-16T04:20:51.366Z,82.16
2024-01-16T04:23:21.661Z,82.43
2024-01-16T04:25:54.074Z,82.56
2024-01-16T04:28:24.055Z,82.54
2024-01-16T04:30:54.051Z,83.07
2024-01-16T04:33:24.103Z,82.66
2024-01-16T04:35:54.651Z,82.26
2024-01-16T04:38:24.997Z,82.75
2024-01-16T04:40:57.475Z,82.19
2024-01-16T04:43:27.661Z,81.66
2024-01-16T04:45:59.281Z,81.74
2024-01-16T04:48:31.325Z,81.58
2024-01-16T04:51:01.270Z,81.50
2024-01-16T04:53:33.832Z,81.43
2024-01-16T04:56:06.736Z,81.73
2024-01-16T04:58:36.667Z,81.22
2024-01-16T05:01:06.683Z,81.39
2024-01-16T05:03:38.004Z,81.26
2024-01-16T05:06:08.772Z,81.31
2024-01-16T05:08:38.731Z,81.14
2024-01-16T05:11:12.191Z,81.16
2024-01-16T05:13:42.113Z,81.04
2024-01-16T05:16:12.073Z,80.99
2024-01-16T05:18:42.093Z,80.39
2024-01-16T05:21:12.025Z,80.58
2024-01-16T05:23:42.197Z,80.33
2024-01-16T05:26:15.308Z,80.61
2024-01-16T05:28:45.263Z,81.07
2024-01-16T05:31:15.291Z,81.66
2024-01-16T05:33:45.378Z,80.98
2024-01-16T05:36:15.593Z,81.02
2024-01-16T05:38:45.626Z,81.26
2024-01-16T05:41:18.435Z,81.05
2024-01-16T05:43:47.995Z,81.08
2024-01-16T05:46:18.030Z,81.51
2024-01-16T05:48:48.674Z,81.58
2024-01-16T05:51:19.178Z,81.88
2024-01-16T05:53:49.428Z,82.39
2024-01-16T05:56:22.234Z,82.50
2024-01-16T05:58:53.623Z,82.91
2024-01-16T06:01:23.839Z,82.78
2024-01-16T06:03:53.774Z,83.15
2024-01-16T06:06:23.697Z,83.12
2024-01-16T06:08:53.577Z,83.24
2024-01-16T06:14:03.256Z,83.18
2024-01-16T06:16:33.914Z,82.92
2024-01-16T06:19:03.797Z,83.05
2024-01-16T06:21:33.905Z,83.08
2024-01-16T06:24:03.958Z,82.90
2024-01-16T06:26:37.392Z,82.89
2024-01-16T06:29:11.594Z,82.73
2024-01-16T06:31:47.891Z,82.48
2024-01-16T06:34:17.830Z,82.34
2024-01-16T06:36:48.202Z,82.45
2024-01-16T06:39:18.692Z,82.16
2024-01-16T06:41:51.254Z,81.85
2024-01-16T06:44:22.312Z,82.11
2024-01-16T06:46:52.177Z,81.86
2024-01-16T06:49:22.092Z,81.66
2024-01-16T06:51:52.177Z,81.42
2024-01-16T06:54:24.670Z,81.12
2024-01-16T06:56:57.218Z,81.15
2024-01-16T06:59:27.089Z,81.19
2024-01-16T07:01:57.124Z,82.03
2024-01-16T07:04:27.277Z,83.48
2024-01-16T07:06:57.104Z,83.26
2024-01-16T07:09:27.000Z,83.00
2024-01-16T07:11:59.518Z,82.98
2024-01-16T07:14:29.796Z,82.71
2024-01-16T07:17:00.307Z,82.18
2024-01-16T07:19:30.724Z,82.71
2024-01-16T07:22:00.572Z,81.96
2024-01-16T07:24:30.635Z,81.99
2024-01-16T07:27:03.243Z,82.52
2024-01-16T07:29:33.209Z,82.16
2024-01-16T07:32:04.106Z,82.68
2024-01-16T07:34:35.430Z,82.34
2024-01-16T07:37:05.553Z,82.40
2024-01-16T07:39:35.863Z,82.41
2024-01-16T07:42:09.220Z,81.99
2024-01-16T07:44:39.117Z,82.03
2024-01-16T07:47:10.107Z,82.25
2024-01-16T07:49:40.127Z,82.01
2024-01-16T07:52:10.214Z,82.27
2024-01-16T07:54:40.058Z,82.28
2024-01-16T07:57:13.427Z,82.25
2024-01-16T07:59:44.001Z,81.96
2024-01-16T08:02:15.398Z,81.89
2024-01-16T08:04:45.237Z,81.98
2024-01-16T08:07:15.692Z,81.72
2024-01-16T08:09:45.753Z,81.23
2024-01-16T08:12:18.606Z,81.16
2024-01-16T08:14:48.668Z,81.18
2024-01-16T08:17:19.204Z,81.44
2024-01-16T08:19:49.292Z,81.35
2024-01-16T08:22:22.055Z,81.56
2024-01-16T08:24:51.891Z,81.36
2024-01-16T08:27:24.493Z,81.13
2024-01-16T08:29:54.424Z,80.83
2024-01-16T08:32:24.308Z,80.89
2024-01-16T08:34:54.909Z,81.10
2024-01-16T08:37:26.788Z,81.00
2024-01-16T08:39:56.875Z,81.19
2024-01-16T08:42:30.468Z,81.47
2024-01-16T08:45:00.857Z,81.13
2024-01-16T08:47:31.133Z,81.14
2024-01-16T08:50:01.182Z,80.88
2024-01-16T08:52:32.065Z,80.93
2024-01-16T08:55:01.991Z,80.88
2024-01-16T08:57:34.730Z,80.18
2024-01-16T09:00:04.978Z,80.28
2024-01-16T09:02:35.084Z,80.07
2024-01-16T09:05:06.476Z,80.22
2024-01-16T09:07:36.520Z,79.96
2024-01-16T09:10:07.114Z,80.13
2024-01-16T09:12:40.332Z,80.34
2024-01-16T09:15:11.784Z,80.27
2024-01-16T09:17:41.934Z,80.44
2024-01-16T09:20:13.406Z,79.83
2024-01-16T09:22:43.538Z,79.73
2024-01-16T09:25:13.425Z,79.55
2024-01-16T09:27:47.071Z,79.06
2024-01-16T09:30:17.740Z,78.96
2024-01-16T09:32:47.697Z,79.18
2024-01-16T09:35:18.064Z,79.09
2024-01-16T09:37:48.258Z,78.24
2024-01-16T09:40:18.203Z,78.63
2024-01-16T09:42:51.027Z,78.26
2024-01-16T09:45:24.420Z,78.15
2024-01-16T09:47:55.537Z,77.84
2024-01-16T09:50:26.855Z,77.57
2024-01-16T09:52:59.899Z,77.43
2024-01-16T09:55:30.126Z,76.89
2024-01-16T09:58:04.844Z,76.88
2024-01-16T10:00:35.257Z,76.56
2024-01-16T10:03:06.140Z,75.91
2024-01-16T10:05:37.315Z,76.18
2024-01-16T10:08:09.226Z,75.89
2024-01-16T10:10:47.629Z,75.48
2024-01-16T10:13:23.622Z,75.21
2024-01-16T10:15:56.744Z,75.31
2024-01-16T10:18:28.634Z,74.89
2024-01-16T10:20:58.890Z,74.61
2024-01-16T10:23:29.797Z,74.70
2024-01-16T10:26:13.176Z,74.35
2024-01-16T10:28:46.831Z,74.80
2024-01-16T10:31:18.461Z,74.27
2024-01-16T10:33:48.595Z,73.55
2024-01-16T10:36:21.981Z,72.77
2024-01-16T10:38:58.760Z,73.28
2024-01-16T10:41:28.960Z,73.31
2024-01-16T10:44:09.521Z,72.06
2024-01-16T10:46:40.079Z,72.41
2024-01-16T10:49:10.149Z,72.51
2024-01-16T10:51:41.029Z,72.32
2024-01-16T10:54:15.212Z,72.53
2024-01-16T10:56:49.677Z,72.22
2024-01-16T10:59:28.992Z,72.13
2024-01-16T11:02:02.231Z,72.59
2024-01-16T11:04:33.356Z,72.60
2024-01-16T11:07:05.690Z,72.48
2024-01-16T11:09:36.815Z,72.38
2024-01-16T11:12:07.919Z,71.82
2024-01-16T11:14:41.147Z,71.35
2024-01-16T11:17:18.830Z,71.56
2024-01-16T11:20:07.222Z,71.13
2024-01-16T11:22:42.429Z,72.41
2024-01-16T11:25:14.289Z,72.17
2024-01-16T11:27:45.608Z,72.54
2024-01-16T11:30:34.089Z,72.91
2024-01-16T11:33:06.306Z,72.99
2024-01-16T11:35:38.142Z,73.50
2024-01-16T11:38:09.995Z,74.39
2024-01-16T11:40:40.262Z,73.84
2024-01-16T11:43:40.236Z,73.53
2024-01-16T11:46:13.268Z,73.61
2024-01-16T11:48:44.291Z,73.52
2024-01-16T11:51:27.715Z,73.10
2024-01-16T11:53:57.597Z,73.01
2024-01-16T11:56:59.330Z,72.74
2024-01-16T11:59:59.197Z,72.13
2024-01-16T12:02:42.678Z,71.71
2024-01-16T12:05:15.509Z,71.53
2024-01-16T12:07:51.286Z,71.36
2024-01-16T12:10:22.559Z,70.83
2024-01-16T12:12:54.173Z,70.87
2024-01-16T12:15:25.094Z,71.97
2024-01-16T12:18:02.536Z,72.25
2024-01-16T12:20:34.595Z,72.53
2024-01-16T12:23:05.957Z,72.39
2024-01-16T12:26:00.813Z,72.96
2024-01-16T12:28:32.397Z,73.53
2024-01-16T12:31:04.782Z,73.72
2024-01-16T12:33:38.945Z,73.67
2024-01-16T12:36:12.069Z,74.32
2024-01-16T12:38:42.020Z,74.28
2024-01-16T12:41:14.599Z,74.70
2024-01-16T12:43:41.988Z,74.93
2024-01-16T12:46:15.319Z,75.53
2024-01-16T12:48:56.379Z,75.94
2024-01-16T12:51:33.359Z,76.04
2024-01-16T12:54:15.274Z,76.16
2024-01-16T12:56:45.710Z,75.92
2024-01-16T12:59:16.323Z,75.91
2024-01-16T13:01:47.934Z,76.13
2024-01-16T13:04:20.848Z,75.89
2024-01-16T13:06:51.858Z,75.38
2024-01-16T13:09:27.524Z,75.54
2024-01-16T13:12:00.049Z,75.53
2024-01-16T13:14:29.961Z,75.77
2024-01-16T13:17:00.185Z,75.65
2024-01-16T13:19:35.009Z,75.40
2024-01-16T13:22:05.464Z,74.88
2024-01-16T13:24:35.542Z,75.22
2024-01-16T13:27:05.768Z,74.67
2024-01-16T13:29:39.480Z,74.77
2024-01-16T13:32:10.037Z,75.26
2024-01-16T13:34:47.695Z,75.00
2024-01-16T13:37:24.318Z,75.80
2024-01-16T13:39:54.136Z,75.20
2024-01-16T13:42:24.064Z,75.60
2024-01-16T13:44:54.487Z,75.70
2024-01-16T13:47:24.602Z,75.42
2024-01-16T13:49:57.545Z,75.99
2024-01-16T13:52:29.320Z,76.07
2024-01-16T13:54:59.342Z,76.46
2024-01-16T13:57:29.378Z,76.31
2024-01-16T14:00:00.195Z,76.66
2024-01-16T14:02:31.193Z,76.40
2024-01-16T14:05:03.774Z,76.76
2024-01-16T14:07:34.139Z,76.81
2024-01-16T14:10:06.049Z,76.50
2024-01-16T14:12:36.882Z,76.00
2024-01-16T14:15:17.169Z,75.88
2024-01-16T14:17:48.236Z,75.64
2024-01-16T14:20:27.210Z,75.55
2024-01-16T14:22:59.108Z,75.91
2024-01-16T14:25:29.147Z,75.46
2024-01-16T14:28:04.872Z,75.94
2024-01-16T14:30:36.355Z,75.75
2024-01-16T14:33:08.422Z,76.25
2024-01-16T14:35:42.142Z,76.05
2024-01-16T14:38:12.035Z,76.49
2024-01-16T14:40:41.930Z,76.41
2024-01-16T14:43:11.865Z,76.87
2024-01-16T14:45:41.923Z,77.46
2024-01-16T14:48:12.811Z,77.39
2024-01-16T14:50:45.445Z,78.05
2024-01-16T14:53:15.910Z,78.35
2024-01-16T14:55:46.015Z,78.60
2024-01-16T14:58:16.116Z,78.88
2024-01-16T15:00:46.984Z,79.13
2024-01-16T15:03:19.618Z,79.23
2024-01-16T15:05:56.479Z,79.50
2024-01-16T15:08:27.531Z,80.11
2024-01-16T15:10:57.667Z,81.03
2024-01-16T15:13:27.618Z,81.03
2024-01-16T15:15:57.753Z,81.41
2024-01-16T15:18:31.092Z,82.36
2024-01-16T15:21:03.755Z,82.42
2024-01-16T15:23:33.618Z,83.01
2024-01-16T15:26:06.229Z,83.65
2024-01-16T15:28:36.943Z,83.82
2024-01-16T15:31:08.989Z,84.59
2024-01-16T15:33:40.079Z,84.66
2024-01-16T15:36:12.871Z,85.35
2024-01-16T15:38:42.538Z,85.17
2024-01-16T15:41:12.379Z,85.63
2024-01-16T15:43:42.493Z,85.38
2024-01-16T15:46:12.480Z,85.29
2024-01-16T15:48:44.110Z,85.39
2024-01-16T15:51:17.546Z,85.53
2024-01-16T15:53:47.596Z,85.48
2024-01-16T15:56:17.594Z,84.97
2024-01-16T15:58:47.400Z,84.73
2024-01-16T16:01:17.271Z,84.78
2024-01-16T16:03:48.121Z,84.73
2024-01-16T16:06:20.692Z,84.64
2024-01-16T16:08:50.739Z,84.72
2024-01-16T16:11:20.908Z,84.94
2024-01-16T16:13:50.811Z,85.11
2024-01-16T16:16:20.744Z,85.30
2024-01-16T16:18:51.142Z,85.26
2024-01-16T16:23:52.441Z,85.45
2024-01-16T16:26:34.436Z,85.58
2024-01-16T16:29:05.658Z,85.02
2024-01-16T16:31:36.227Z,85.21
2024-01-16T16:34:08.080Z,85.36
2024-01-16T16:36:42.976Z,84.78
2024-01-16T16:39:14.418Z,84.52
2024-01-16T16:41:44.888Z,84.08
2024-01-16T16:44:15.296Z,83.75
2024-01-16T16:46:45.609Z,84.14
2024-01-16T16:49:15.842Z,84.32
2024-01-16T16:51:48.928Z,83.46
2024-01-16T16:54:18.923Z,83.78
2024-01-16T16:56:48.787Z,82.75
2024-01-16T16:59:19.414Z,82.59
2024-01-16T17:01:49.335Z,82.52
2024-01-16T17:04:19.279Z,82.14
2024-01-16T17:06:51.955Z,82.04
2024-01-16T17:09:22.825Z,81.66
2024-01-16T17:11:52.667Z,80.65
2024-01-16T17:14:22.880Z,81.13
2024-01-16T17:16:52.960Z,80.51
2024-01-16T17:19:23.303Z,80.31
2024-01-16T17:21:55.984Z,80.40
2024-01-16T17:24:25.905Z,79.98
2024-01-16T17:26:55.821Z,80.00
2024-01-16T17:29:26.841Z,79.58
2024-01-16T17:31:57.959Z,79.49
2024-01-16T17:34:28.102Z,79.27
2024-01-16T17:37:00.787Z,78.37
2024-01-16T17:39:30.919Z,78.58
2024-01-16T17:42:01.137Z,78.68
2024-01-16T17:44:39.169Z,78.14
2024-01-16T17:47:09.432Z,77.75
2024-01-16T17:49:39.257Z,77.52
2024-01-16T17:52:12.429Z,77.26
2024-01-16T17:54:43.016Z,77.73
2024-01-16T17:57:13.418Z,77.50
2024-01-16T17:59:44.324Z,77.90
2024-01-16T18:02:14.316Z,78.30
2024-01-16T18:04:45.284Z,77.74
2024-01-16T18:07:17.923Z,77.49
2024-01-16T18:09:48.453Z,77.03
2024-01-16T18:12:18.633Z,76.90
2024-01-16T18:14:48.957Z,76.86
2024-01-16T18:17:19.856Z,76.03
2024-01-16T18:19:51.013Z,75.82
2024-01-16T18:22:23.577Z,75.14
2024-01-16T18:24:54.600Z,75.38
2024-01-16T18:27:24.424Z,74.89
2024-01-16T18:29:54.364Z,73.88
2024-01-16T18:32:24.378Z,73.40
2024-01-16T18:34:54.466Z,72.70
2024-01-16T18:37:27.007Z,73.79
2024-01-16T18:39:56.979Z,73.82
2024-01-16T18:42:26.779Z,73.49
2024-01-16T18:44:57.551Z,72.51
2024-01-16T18:47:28.028Z,73.13
2024-01-16T18:49:58.052Z,73.18
2024-01-16T18:52:30.495Z,73.60
2024-01-16T18:55:00.673Z,73.89
2024-01-16T18:57:32.571Z,73.06
2024-01-16T19:00:02.668Z,72.93
2024-01-16T19:02:33.507Z,72.58
2024-01-16T19:05:03.709Z,72.55
2024-01-16T19:07:36.153Z,72.05
2024-01-16T19:10:07.208Z,72.22
2024-01-16T19:12:37.311Z,72.67
2024-01-16T19:15:08.140Z,71.40
2024-01-16T19:17:38.118Z,72.02
2024-01-16T19:20:11.505Z,71.49
2024-01-16T19:22:44.843Z,70.84
2024-01-16T19:25:17.717Z,70.02
2024-01-16T19:27:49.600Z,70.51
2024-01-16T19:30:21.080Z,70.32
2024-01-16T19:32:51.786Z,69.64
2024-01-16T19:35:22.112Z,70.72
2024-01-16T19:37:54.519Z,71.09
2024-01-16T19:40:25.631Z,71.33
2024-01-16T19:42:55.761Z,71.42
2024-01-16T19:45:26.530Z,71.62
2024-01-16T19:47:56.567Z,71.66
2024-01-16T19:50:27.095Z,71.71
2024-01-16T19:53:00.808Z,71.97
2024-01-16T19:55:31.013Z,72.97
2024-01-16T19:58:00.962Z,73.09
2024-01-16T20:00:31.079Z,72.54
2024-01-16T20:03:01.366Z,72.16
2024-01-16T20:05:32.615Z,71.85
2024-01-16T20:08:05.528Z,71.26
2024-01-16T20:10:39.790Z,71.85
2024-01-16T20:13:10.441Z,71.52
2024-01-16T20:15:40.336Z,71.22
2024-01-16T20:18:10.912Z,71.60
2024-01-16T20:20:40.847Z,71.66
2024-01-16T20:23:14.164Z,72.39
2024-01-16T20:25:44.031Z,72.20
2024-01-16T20:28:15.813Z,72.48
2024-01-16T20:30:45.679Z,72.39
2024-01-16T20:33:16.308Z,72.48
2024-01-16T20:35:46.172Z,72.68
2024-01-16T20:38:18.778Z,72.77
2024-01-16T20:40:49.625Z,73.08
2024-01-16T20:43:19.943Z,72.78
2024-01-16T20:45:50.238Z,72.52
2024-01-16T20:48:20.212Z,72.12
2024-01-16T20:50:50.257Z,72.37
2024-01-16T20:53:22.878Z,72.28
2024-01-16T20:55:52.845Z,71.83
2024-01-16T20:58:23.533Z,72.39
2024-01-16T21:00:53.828Z,72.71
2024-01-16T21:03:26.212Z,72.74
2024-01-16T21:05:57.861Z,72.66
2024-01-16T21:08:30.512Z,72.53
2024-01-16T21:11:00.623Z,72.83
2024-01-16T21:13:30.647Z,72.71
2024-01-16T21:16:03.105Z,72.87
2024-01-16T21:18:33.399Z,73.31
2024-01-16T21:21:03.817Z,73.61
2024-01-16T21:23:36.652Z,73.57
2024-01-16T21:26:11.410Z,73.39
2024-01-16T21:28:41.624Z,73.34
2024-01-16T21:31:11.753Z,73.48
2024-01-16T21:33:43.414Z,73.75
2024-01-16T21:36:15.377Z,73.91
2024-01-16T21:38:48.046Z,74.37
2024-01-16T21:41:17.976Z,74.78
2024-01-16T21:43:47.862Z,76.11
2024-01-16T21:46:17.963Z,75.98
2024-01-16T21:48:48.597Z,76.25
2024-01-16T21:51:18.751Z,77.03
2024-01-16T21:53:51.317Z,77.12
2024-01-16T21:56:22.078Z,75.93
2024-01-16T21:58:52.111Z,75.36
2024-01-16T22:01:22.445Z,76.46
2024-01-16T22:03:53.112Z,75.35
2024-01-16T22:06:24.350Z,74.19
2024-01-16T22:08:57.715Z,73.60
2024-01-16T22:11:27.942Z,74.21
2024-01-16T22:13:57.795Z,73.85
2024-01-16T22:16:28.617Z,75.03
2024-01-16T22:18:58.804Z,74.26
2024-01-16T22:21:28.867Z,73.85
2024-01-16T22:24:01.698Z,73.80
2024-01-16T22:26:32.755Z,73.56
2024-01-16T22:29:03.631Z,73.84
2024-01-16T22:31:33.857Z,73.60
2024-01-16T22:34:04.203Z,72.96
2024-01-16T22:36:34.247Z,72.73
2024-01-16T22:39:06.873Z,72.46
2024-01-16T22:41:36.802Z,72.97
2024-01-16T22:44:08.544Z,72.52
2024-01-16T22:46:38.622Z,72.27
2024-01-16T22:49:08.842Z,72.17
2024-01-16T22:51:39.716Z,72.18
2024-01-16T22:54:12.615Z,72.87
2024-01-16T22:56:42.463Z,72.72
2024-01-16T22:59:12.278Z,72.89
2024-01-16T23:01:43.315Z,73.31
2024-01-16T23:04:13.231Z,73.03
2024-01-16T23:06:43.470Z,73.27
2024-01-16T23:09:15.970Z,73.12
2024-01-16T23:11:46.307Z,73.15
2024-01-16T23:14:16.203Z,73.12
2024-01-16T23:16:46.157Z,73.08
2024-01-16T23:19:16.761Z,73.44
2024-01-16T23:21:50.184Z,72.90
2024-01-16T23:24:22.886Z,73.00
2024-01-16T23:26:52.796Z,72.89
2024-01-16T23:29:22.743Z,73.21
2024-01-16T23:31:52.584Z,73.55
2024-01-16T23:34:22.664Z,73.20
2024-01-16T23:36:52.766Z,72.53
2024-01-16T23:39:26.919Z,72.45
2024-01-16T23:41:57.785Z,72.35
2024-01-16T23:44:28.006Z,72.15
2024-01-16T23:46:58.054Z,72.27
2024-01-16T23:49:27.876Z,72.57
2024-01-16T23:51:57.683Z,72.26
2024-01-16T23:54:30.222Z,72.51
2024-01-16T23:57:00.114Z,72.52
2024-01-16T23:59:29.933Z,72.64
